sensor_id;sensor_type;location;lat;lon;timestamp;temperature;humidity
2447;DHT22;26430;48.818;9.244;2023-04-01T00:00:50;8.80;99.90
2447;DHT22;26430;48.818;9.244;2023-04-01T00:03:17;8.80;99.90
2447;DHT22;26430;48.818;9.244;2023-04-01T00:05:44;8.80;99.90
2447;DHT22;26430;48.818;9.244;2023-04-01T00:08:10;8.80;99.90
2447;DHT22;26430;48.818;9.244;2023-04-01T00:10:36;8.80;99.90
2447;DHT22;26430;48.818;9.244;2023-04-01T00:13:02;8.80;99.90
2447;DHT22;26430;48.818;9.244;2023-04-01T00:15:27;8.80;99.90
2447;DHT22;26430;48.818;9.244;2023-04-01T00:17:53;8.80;99.90
2447;DHT22;26430;48.818;9.244;2023-04-01T00:20:20;8.90;99.90
2447;DHT22;26430;48.818;9.244;2023-04-01T00:22:46;8.90;99.90
2447;DHT22;26430;48.818;9.244;2023-04-01T00:25:12;8.90;99.90
2447;DHT22;26430;48.818;9.244;2023-04-01T00:27:38;8.80;99.90
2447;DHT22;26430;48.818;9.244;2023-04-01T00:30:04;8.90;99.90
2447;DHT22;26430;48.818;9.244;2023-04-01T00:32:29;8.90;99.90
2447;DHT22;26430;48.818;9.244;2023-04-01T00:34:56;8.90;99.90
2447;DHT22;26430;48.818;9.244;2023-04-01T00:37:24;8.90;99.90
2447;DHT22;26430;48.818;9.244;2023-04-01T00:39:50;8.90;99.90
2447;DHT22;26430;48.818;9.244;2023-04-01T00:42:15;8.90;99.90
2447;DHT22;26430;48.818;9.244;2023-04-01T00:44:42;8.90;99.90
2447;DHT22;26430;48.818;9.244;2023-04-01T00:47:08;8.90;99.90
2447;DHT22;26430;48.818;9.244;2023-04-01T00:49:39;8.90;99.90
2447;DHT22;26430;48.818;9.244;2023-04-01T00:52:08;8.90;99.90
2447;DHT22;26430;48.818;9.244;2023-04-01T00:54:36;8.90;99.90
2447;DHT22;26430;48.818;9.244;2023-04-01T00:57:30;9.00;99.90
2447;DHT22;26430;48.818;9.244;2023-04-01T00:59:54;9.00;99.90
2447;DHT22;26430;48.818;9.244;2023-04-01T01:02:21;9.00;99.90
2447;DHT22;26430;48.818;9.244;2023-04-01T01:04:47;9.00;99.90
2447;DHT22;26430;48.818;9.244;2023-04-01T01:07:38;9.00;99.90
2447;DHT22;26430;48.818;9.244;2023-04-01T01:10:18;9.00;99.90
2447;DHT22;26430;48.818;9.244;2023-04-01T01:12:49;9.00;99.90
2447;DHT22;26430;48.818;9.244;2023-04-01T01:15:23;9.00;99.90
2447;DHT22;26430;48.818;9.244;2023-04-01T01:18:06;9.00;99.90
2447;DHT22;26430;48.818;9.244;2023-04-01T01:31:57;8.90;99.90
2447;DHT22;26430;48.818;9.244;2023-04-01T01:37:14;8.90;99.90
2447;DHT22;26430;48.818;9.244;2023-04-01T01:39:43;8.90;99.90
2447;DHT22;26430;48.818;9.244;2023-04-01T01:42:13;8.90;99.90
2447;DHT22;26430;48.818;9.244;2023-04-01T01:44:43;8.90;99.90
2447;DHT22;26430;48.818;9.244;2023-04-01T01:47:10;8.90;99.90
2447;DHT22;26430;48.818;9.244;2023-04-01T01:49:36;8.80;99.90
2447;DHT22;26430;48.818;9.244;2023-04-01T01:52:02;8.70;99.90
2447;DHT22;26430;48.818;9.244;2023-04-01T01:54:29;8.70;99.90
2447;DHT22;26430;48.818;9.244;2023-04-01T01:57:13;8.60;99.90
2447;DHT22;26430;48.818;9.244;2023-04-01T01:59:40;8.60;99.90
2447;DHT22;26430;48.818;9.244;2023-04-01T02:02:08;8.60;99.90
2447;DHT22;26430;48.818;9.244;2023-04-01T02:04:37;8.40;99.90
2447;DHT22;26430;48.818;9.244;2023-04-01T02:07:08;8.40;99.90
2447;DHT22;26430;48.818;9.244;2023-04-01T02:09:36;8.30;99.90
2447;DHT22;26430;48.818;9.244;2023-04-01T02:12:10;8.30;99.90
2447;DHT22;26430;48.818;9.244;2023-04-01T02:14:49;8.40;99.90
2447;DHT22;26430;48.818;9.244;2023-04-01T02:17:19;8.30;99.90
2447;DHT22;26430;48.818;9.244;2023-04-01T02:19:57;8.30;99.90
2447;DHT22;26430;48.818;9.244;2023-04-01T02:22:28;8.30;99.90
2447;DHT22;26430;48.818;9.244;2023-04-01T02:24:58;8.40;99.90
2447;DHT22;26430;48.818;9.244;2023-04-01T02:27:25;8.40;99.90
2447;DHT22;26430;48.818;9.244;2023-04-01T02:29:51;8.40;99.90
2447;DHT22;26430;48.818;9.244;2023-04-01T02:32:19;8.40;99.90
2447;DHT22;26430;48.818;9.244;2023-04-01T02:34:46;8.30;99.90
2447;DHT22;26430;48.818;9.244;2023-04-01T02:37:13;8.40;99.90
2447;DHT22;26430;48.818;9.244;2023-04-01T02:39:39;8.40;99.90
2447;DHT22;26430;48.818;9.244;2023-04-01T02:42:05;8.30;99.90
2447;DHT22;26430;48.818;9.244;2023-04-01T02:44:31;8.30;99.90
2447;DHT22;26430;48.818;9.244;2023-04-01T02:46:57;8.30;99.90
2447;DHT22;26430;48.818;9.244;2023-04-01T02:49:23;8.40;99.90
2447;DHT22;26430;48.818;9.244;2023-04-01T02:51:48;8.30;99.90
2447;DHT22;26430;48.818;9.244;2023-04-01T02:54:14;8.30;99.90
2447;DHT22;26430;48.818;9.244;2023-04-01T02:56:40;8.30;99.90
2447;DHT22;26430;48.818;9.244;2023-04-01T02:59:06;8.30;99.90
2447;DHT22;26430;48.818;9.244;2023-04-01T03:01:31;8.30;99.90
2447;DHT22;26430;48.818;9.244;2023-04-01T03:03:57;8.30;99.90
2447;DHT22;26430;48.818;9.244;2023-04-01T03:06:23;8.30;99.90
2447;DHT22;26430;48.818;9.244;2023-04-01T03:08:48;8.30;99.90
2447;DHT22;26430;48.818;9.244;2023-04-01T03:11:14;8.30;99.90
2447;DHT22;26430;48.818;9.244;2023-04-01T03:13:40;8.30;99.90
2447;DHT22;26430;48.818;9.244;2023-04-01T03:16:06;8.30;99.90
2447;DHT22;26430;48.818;9.244;2023-04-01T03:18:32;8.30;99.90
2447;DHT22;26430;48.818;9.244;2023-04-01T03:21:15;8.30;99.90
2447;DHT22;26430;48.818;9.244;2023-04-01T03:23:41;8.30;99.90
2447;DHT22;26430;48.818;9.244;2023-04-01T03:26:07;8.30;99.90
2447;DHT22;26430;48.818;9.244;2023-04-01T03:28:33;8.30;99.90
2447;DHT22;26430;48.818;9.244;2023-04-01T03:30:59;8.20;99.90
2447;DHT22;26430;48.818;9.244;2023-04-01T03:33:24;8.30;99.90
2447;DHT22;26430;48.818;9.244;2023-04-01T03:35:50;8.20;99.90
2447;DHT22;26430;48.818;9.244;2023-04-01T03:38:17;8.20;99.90
2447;DHT22;26430;48.818;9.244;2023-04-01T03:40:43;8.20;99.90
2447;DHT22;26430;48.818;9.244;2023-04-01T03:43:09;8.20;99.90
2447;DHT22;26430;48.818;9.244;2023-04-01T03:45:36;8.20;99.90
2447;DHT22;26430;48.818;9.244;2023-04-01T03:48:01;8.20;99.90
2447;DHT22;26430;48.818;9.244;2023-04-01T03:50:27;8.20;99.90
2447;DHT22;26430;48.818;9.244;2023-04-01T03:52:53;8.30;99.90
2447;DHT22;26430;48.818;9.244;2023-04-01T03:55:18;8.30;99.90
2447;DHT22;26430;48.818;9.244;2023-04-01T03:57:44;8.30;99.90
2447;DHT22;26430;48.818;9.244;2023-04-01T04:00:10;8.30;99.90
2447;DHT22;26430;48.818;9.244;2023-04-01T04:02:36;8.30;99.90
2447;DHT22;26430;48.818;9.244;2023-04-01T04:05:02;8.20;99.90
2447;DHT22;26430;48.818;9.244;2023-04-01T04:07:27;8.20;99.90
2447;DHT22;26430;48.818;9.244;2023-04-01T04:09:53;8.20;99.90
2447;DHT22;26430;48.818;9.244;2023-04-01T04:12:19;8.20;99.90
2447;DHT22;26430;48.818;9.244;2023-04-01T04:14:44;8.20;99.90
2447;DHT22;26430;48.818;9.244;2023-04-01T04:17:11;8.20;99.90
2447;DHT22;26430;48.818;9.244;2023-04-01T04:19:41;8.30;99.90
2447;DHT22;26430;48.818;9.244;2023-04-01T04:22:07;8.30;99.90
2447;DHT22;26430;48.818;9.244;2023-04-01T04:24:36;8.30;99.90
2447;DHT22;26430;48.818;9.244;2023-04-01T04:27:02;8.30;99.90
2447;DHT22;26430;48.818;9.244;2023-04-01T04:29:28;8.30;99.90
2447;DHT22;26430;48.818;9.244;2023-04-01T04:31:53;8.30;99.90
2447;DHT22;26430;48.818;9.244;2023-04-01T04:34:19;8.20;99.90
2447;DHT22;26430;48.818;9.244;2023-04-01T04:36:45;8.20;99.90
2447;DHT22;26430;48.818;9.244;2023-04-01T04:39:10;8.20;99.90
2447;DHT22;26430;48.818;9.244;2023-04-01T04:41:39;8.20;99.90
2447;DHT22;26430;48.818;9.244;2023-04-01T04:44:04;8.10;99.90
2447;DHT22;26430;48.818;9.244;2023-04-01T04:46:30;8.10;99.90
2447;DHT22;26430;48.818;9.244;2023-04-01T04:48:56;8.00;99.90
2447;DHT22;26430;48.818;9.244;2023-04-01T04:51:22;8.00;99.90
2447;DHT22;26430;48.818;9.244;2023-04-01T04:53:48;7.90;99.90
2447;DHT22;26430;48.818;9.244;2023-04-01T04:56:19;7.90;99.90
2447;DHT22;26430;48.818;9.244;2023-04-01T04:58:45;7.80;99.90
2447;DHT22;26430;48.818;9.244;2023-04-01T05:01:16;7.80;99.90
2447;DHT22;26430;48.818;9.244;2023-04-01T05:03:42;7.80;99.90
2447;DHT22;26430;48.818;9.244;2023-04-01T05:06:08;7.90;99.90
2447;DHT22;26430;48.818;9.244;2023-04-01T05:08:34;7.90;99.90
2447;DHT22;26430;48.818;9.244;2023-04-01T05:11:01;7.90;99.90
2447;DHT22;26430;48.818;9.244;2023-04-01T05:13:27;7.90;99.90
2447;DHT22;26430;48.818;9.244;2023-04-01T05:15:54;7.90;99.90
2447;DHT22;26430;48.818;9.244;2023-04-01T05:18:20;7.90;99.90
2447;DHT22;26430;48.818;9.244;2023-04-01T05:20:47;8.00;99.90
2447;DHT22;26430;48.818;9.244;2023-04-01T05:23:13;7.90;99.90
2447;DHT22;26430;48.818;9.244;2023-04-01T05:25:39;8.00;99.90
2447;DHT22;26430;48.818;9.244;2023-04-01T05:28:04;8.00;99.90
2447;DHT22;26430;48.818;9.244;2023-04-01T05:30:30;8.00;99.90
2447;DHT22;26430;48.818;9.244;2023-04-01T05:32:56;8.10;99.90
2447;DHT22;26430;48.818;9.244;2023-04-01T05:35:21;8.10;99.90
2447;DHT22;26430;48.818;9.244;2023-04-01T05:37:47;8.10;99.90
2447;DHT22;26430;48.818;9.244;2023-04-01T05:40:13;8.10;99.90
2447;DHT22;26430;48.818;9.244;2023-04-01T05:42:38;8.20;99.90
2447;DHT22;26430;48.818;9.244;2023-04-01T05:45:04;8.30;99.90
2447;DHT22;26430;48.818;9.244;2023-04-01T05:47:30;8.30;99.90
2447;DHT22;26430;48.818;9.244;2023-04-01T05:49:56;8.30;99.90
2447;DHT22;26430;48.818;9.244;2023-04-01T05:52:21;8.30;99.90
2447;DHT22;26430;48.818;9.244;2023-04-01T05:54:47;8.30;99.90
2447;DHT22;26430;48.818;9.244;2023-04-01T05:57:12;8.40;99.90
2447;DHT22;26430;48.818;9.244;2023-04-01T05:59:38;8.40;99.90
2447;DHT22;26430;48.818;9.244;2023-04-01T06:02:04;8.50;99.90
2447;DHT22;26430;48.818;9.244;2023-04-01T06:04:37;8.50;99.90
2447;DHT22;26430;48.818;9.244;2023-04-01T06:07:13;8.60;99.90
2447;DHT22;26430;48.818;9.244;2023-04-01T06:09:40;8.60;99.90
2447;DHT22;26430;48.818;9.244;2023-04-01T06:12:49;8.60;99.90
2447;DHT22;26430;48.818;9.244;2023-04-01T06:15:35;8.60;99.90
2447;DHT22;26430;48.818;9.244;2023-04-01T06:24:26;8.80;99.90
2447;DHT22;26430;48.818;9.244;2023-04-01T06:38:22;9.20;99.90
2447;DHT22;26430;48.818;9.244;2023-04-01T06:41:06;9.20;99.90
2447;DHT22;26430;48.818;9.244;2023-04-01T06:54:42;9.20;99.90
2447;DHT22;26430;48.818;9.244;2023-04-01T06:57:32;9.20;99.90
2447;DHT22;26430;48.818;9.244;2023-04-01T07:00:04;9.20;99.90
2447;DHT22;26430;48.818;9.244;2023-04-01T07:05:39;9.20;99.90
2447;DHT22;26430;48.818;9.244;2023-04-01T07:08:09;9.20;99.90
2447;DHT22;26430;48.818;9.244;2023-04-01T07:16:12;9.30;99.90
2447;DHT22;26430;48.818;9.244;2023-04-01T07:18:52;9.30;99.90
2447;DHT22;26430;48.818;9.244;2023-04-01T07:21:25;9.30;99.90
2447;DHT22;26430;48.818;9.244;2023-04-01T07:23:53;9.40;99.90
2447;DHT22;26430;48.818;9.244;2023-04-01T07:26:22;9.30;99.90
2447;DHT22;26430;48.818;9.244;2023-04-01T07:28:51;9.30;99.90
2447;DHT22;26430;48.818;9.244;2023-04-01T07:31:54;9.40;99.90
2447;DHT22;26430;48.818;9.244;2023-04-01T07:34:25;9.30;99.90
2447;DHT22;26430;48.818;9.244;2023-04-01T07:37:06;9.40;99.90
2447;DHT22;26430;48.818;9.244;2023-04-01T07:42:35;9.30;99.90
2447;DHT22;26430;48.818;9.244;2023-04-01T07:48:00;9.30;99.90
2447;DHT22;26430;48.818;9.244;2023-04-01T07:50:27;9.40;99.90
2447;DHT22;26430;48.818;9.244;2023-04-01T07:59:20;9.40;99.90
2447;DHT22;26430;48.818;9.244;2023-04-01T08:07:13;9.60;99.90
2447;DHT22;26430;48.818;9.244;2023-04-01T08:09:43;9.70;99.90
2447;DHT22;26430;48.818;9.244;2023-04-01T08:23:30;9.80;99.90
2447;DHT22;26430;48.818;9.244;2023-04-01T08:26:36;9.80;99.90
2447;DHT22;26430;48.818;9.244;2023-04-01T08:29:20;9.70;99.90
2447;DHT22;26430;48.818;9.244;2023-04-01T08:32:22;9.70;99.90
2447;DHT22;26430;48.818;9.244;2023-04-01T08:35:01;9.70;99.90
2447;DHT22;26430;48.818;9.244;2023-04-01T08:37:32;9.70;99.90
2447;DHT22;26430;48.818;9.244;2023-04-01T08:43:21;9.70;99.90
2447;DHT22;26430;48.818;9.244;2023-04-01T08:46:17;9.50;99.90
2447;DHT22;26430;48.818;9.244;2023-04-01T08:54:20;9.20;99.90
2447;DHT22;26430;48.818;9.244;2023-04-01T09:05:20;8.70;99.90
2447;DHT22;26430;48.818;9.244;2023-04-01T09:07:57;8.70;99.90
2447;DHT22;26430;48.818;9.244;2023-04-01T09:19:28;8.80;99.90
2447;DHT22;26430;48.818;9.244;2023-04-01T09:22:31;8.90;99.90
2447;DHT22;26430;48.818;9.244;2023-04-01T09:25:15;9.00;99.90
2447;DHT22;26430;48.818;9.244;2023-04-01T09:33:49;9.20;99.90
2447;DHT22;26430;48.818;9.244;2023-04-01T09:39:12;9.30;99.90
2447;DHT22;26430;48.818;9.244;2023-04-01T09:44:58;9.50;99.90
2447;DHT22;26430;48.818;9.244;2023-04-01T09:47:38;9.50;99.90
2447;DHT22;26430;48.818;9.244;2023-04-01T10:00:37;9.50;99.90
2447;DHT22;26430;48.818;9.244;2023-04-01T10:11:39;9.70;99.90
2447;DHT22;26430;48.818;9.244;2023-04-01T10:28:20;9.80;99.90
2447;DHT22;26430;48.818;9.244;2023-04-01T10:43:10;10.00;99.90
2447;DHT22;26430;48.818;9.244;2023-04-01T11:31:34;10.50;99.90
2447;DHT22;26430;48.818;9.244;2023-04-01T11:42:34;10.70;99.90
2447;DHT22;26430;48.818;9.244;2023-04-01T11:48:07;11.00;99.90
2447;DHT22;26430;48.818;9.244;2023-04-01T11:56:02;11.10;99.90
2447;DHT22;26430;48.818;9.244;2023-04-01T12:01:09;11.00;99.90
2447;DHT22;26430;48.818;9.244;2023-04-01T12:04:34;11.00;99.90
2447;DHT22;26430;48.818;9.244;2023-04-01T12:09:58;10.70;99.90
2447;DHT22;26430;48.818;9.244;2023-04-01T12:15:36;10.70;99.90
2447;DHT22;26430;48.818;9.244;2023-04-01T12:35:20;10.50;99.90
2447;DHT22;26430;48.818;9.244;2023-04-01T12:38:25;10.50;99.90
2447;DHT22;26430;48.818;9.244;2023-04-01T12:41:09;10.60;99.90
2447;DHT22;26430;48.818;9.244;2023-04-01T12:57:54;10.90;99.90
2447;DHT22;26430;48.818;9.244;2023-04-01T13:16:24;10.90;99.90
2447;DHT22;26430;48.818;9.244;2023-04-01T13:19:16;10.80;99.90
2447;DHT22;26430;48.818;9.244;2023-04-01T13:22:12;10.90;99.90
2447;DHT22;26430;48.818;9.244;2023-04-01T13:24:50;10.80;99.90
2447;DHT22;26430;48.818;9.244;2023-04-01T13:27:23;10.70;99.90
2447;DHT22;26430;48.818;9.244;2023-04-01T13:30:02;10.80;99.90
2447;DHT22;26430;48.818;9.244;2023-04-01T13:32:50;10.90;99.90
2447;DHT22;26430;48.818;9.244;2023-04-01T13:38:37;11.20;99.90
2447;DHT22;26430;48.818;9.244;2023-04-01T13:44:12;11.10;99.90
2447;DHT22;26430;48.818;9.244;2023-04-01T13:50:07;11.10;99.90
2447;DHT22;26430;48.818;9.244;2023-04-01T14:00:54;11.30;99.90
2447;DHT22;26430;48.818;9.244;2023-04-01T14:06:05;11.20;99.90
2447;DHT22;26430;48.818;9.244;2023-04-01T14:14:03;10.80;99.90
2447;DHT22;26430;48.818;9.244;2023-04-01T14:31:34;10.90;99.90
2447;DHT22;26430;48.818;9.244;2023-04-01T14:50:46;10.10;99.90
2447;DHT22;26430;48.818;9.244;2023-04-01T14:55:57;10.20;99.90
2447;DHT22;26430;48.818;9.244;2023-04-01T14:58:26;10.20;99.90
2447;DHT22;26430;48.818;9.244;2023-04-01T15:03:44;10.50;99.90
2447;DHT22;26430;48.818;9.244;2023-04-01T15:11:48;10.60;99.90
2447;DHT22;26430;48.818;9.244;2023-04-01T15:22:38;10.80;99.90
2447;DHT22;26430;48.818;9.244;2023-04-01T15:28:23;10.80;99.90
2447;DHT22;26430;48.818;9.244;2023-04-01T15:36:49;10.70;99.90
2447;DHT22;26430;48.818;9.244;2023-04-01T15:44:37;10.80;99.90
2447;DHT22;26430;48.818;9.244;2023-04-01T15:52:41;10.80;99.90
2447;DHT22;26430;48.818;9.244;2023-04-01T15:55:24;10.80;99.90
2447;DHT22;26430;48.818;9.244;2023-04-01T16:09:02;10.90;99.90
2447;DHT22;26430;48.818;9.244;2023-04-01T16:11:55;10.90;99.90
2447;DHT22;26430;48.818;9.244;2023-04-01T16:14:53;10.80;99.90
2447;DHT22;26430;48.818;9.244;2023-04-01T16:20:20;10.80;99.90
2447;DHT22;26430;48.818;9.244;2023-04-01T16:23:02;10.70;99.90
2447;DHT22;26430;48.818;9.244;2023-04-01T16:25:36;10.70;99.90
2447;DHT22;26430;48.818;9.244;2023-04-01T16:33:54;10.80;99.90
2447;DHT22;26430;48.818;9.244;2023-04-01T16:47:54;10.70;99.90
2447;DHT22;26430;48.818;9.244;2023-04-01T16:53:16;10.70;99.90
2447;DHT22;26430;48.818;9.244;2023-04-01T16:58:33;10.70;99.90
2447;DHT22;26430;48.818;9.244;2023-04-01T17:01:24;10.60;99.90
2447;DHT22;26430;48.818;9.244;2023-04-01T17:03:57;10.70;99.90
2447;DHT22;26430;48.818;9.244;2023-04-01T17:11:27;10.60;99.90
2447;DHT22;26430;48.818;9.244;2023-04-01T17:14:07;10.60;99.90
2447;DHT22;26430;48.818;9.244;2023-04-01T17:52:35;10.60;99.90
2447;DHT22;26430;48.818;9.244;2023-04-01T17:58:17;10.70;99.90
2447;DHT22;26430;48.818;9.244;2023-04-01T18:01:05;10.70;99.90
2447;DHT22;26430;48.818;9.244;2023-04-01T18:04:05;10.70;99.90
2447;DHT22;26430;48.818;9.244;2023-04-01T18:07:10;10.70;99.90
2447;DHT22;26430;48.818;9.244;2023-04-01T18:21:36;10.10;99.90
2447;DHT22;26430;48.818;9.244;2023-04-01T18:26:34;9.90;99.90
2447;DHT22;26430;48.818;9.244;2023-04-01T18:29:27;9.80;99.90
2447;DHT22;26430;48.818;9.244;2023-04-01T18:32:12;9.70;99.90
2447;DHT22;26430;48.818;9.244;2023-04-01T18:37:36;9.70;99.90
2447;DHT22;26430;48.818;9.244;2023-04-01T18:43:32;9.70;99.90
2447;DHT22;26430;48.818;9.244;2023-04-01T18:52:22;9.70;99.90
2447;DHT22;26430;48.818;9.244;2023-04-01T18:57:52;9.70;99.90
2447;DHT22;26430;48.818;9.244;2023-04-01T19:00:32;9.70;99.90
2447;DHT22;26430;48.818;9.244;2023-04-01T19:05:50;9.60;99.90
2447;DHT22;26430;48.818;9.244;2023-04-01T19:08:25;9.50;99.90
2447;DHT22;26430;48.818;9.244;2023-04-01T19:11:16;9.40;99.90
2447;DHT22;26430;48.818;9.244;2023-04-01T19:17:10;9.50;99.90
2447;DHT22;26430;48.818;9.244;2023-04-01T19:22:44;9.30;99.90
2447;DHT22;26430;48.818;9.244;2023-04-01T19:33:52;9.10;99.90
2447;DHT22;26430;48.818;9.244;2023-04-01T19:37:01;9.10;99.90
2447;DHT22;26430;48.818;9.244;2023-04-01T19:42:54;9.00;99.90
2447;DHT22;26430;48.818;9.244;2023-04-01T19:48:30;9.00;99.90
2447;DHT22;26430;48.818;9.244;2023-04-01T19:51:09;8.80;99.90
2447;DHT22;26430;48.818;9.244;2023-04-01T19:56:24;9.00;99.90
2447;DHT22;26430;48.818;9.244;2023-04-01T20:01:52;8.90;99.90
2447;DHT22;26430;48.818;9.244;2023-04-01T20:04:30;8.90;99.90
2447;DHT22;26430;48.818;9.244;2023-04-01T20:07:12;8.90;99.90
2447;DHT22;26430;48.818;9.244;2023-04-01T20:13:13;8.90;99.90
2447;DHT22;26430;48.818;9.244;2023-04-01T20:15:34;8.90;99.90
2447;DHT22;26430;48.818;9.244;2023-04-01T20:18:02;8.90;99.90
2447;DHT22;26430;48.818;9.244;2023-04-01T20:20:30;9.00;99.90
2447;DHT22;26430;48.818;9.244;2023-04-01T20:23:24;8.90;99.90
2447;DHT22;26430;48.818;9.244;2023-04-01T20:26:01;8.90;99.90
2447;DHT22;26430;48.818;9.244;2023-04-01T20:37:15;9.00;99.90
2447;DHT22;26430;48.818;9.244;2023-04-01T20:40:34;9.10;99.90
2447;DHT22;26430;48.818;9.244;2023-04-01T20:46:16;9.20;99.90
2447;DHT22;26430;48.818;9.244;2023-04-01T20:51:59;9.20;99.90
2447;DHT22;26430;48.818;9.244;2023-04-01T20:54:34;9.10;99.90
2447;DHT22;26430;48.818;9.244;2023-04-01T21:05:34;9.00;99.90
2447;DHT22;26430;48.818;9.244;2023-04-01T21:08:11;9.00;99.90
2447;DHT22;26430;48.818;9.244;2023-04-01T21:13:44;9.10;99.90
2447;DHT22;26430;48.818;9.244;2023-04-01T21:21:54;9.10;99.90
2447;DHT22;26430;48.818;9.244;2023-04-01T21:35:35;9.00;99.90
2447;DHT22;26430;48.818;9.244;2023-04-01T21:38:14;9.00;99.90
2447;DHT22;26430;48.818;9.244;2023-04-01T22:00:13;9.00;99.90
2447;DHT22;26430;48.818;9.244;2023-04-01T22:08:41;9.10;99.90
2447;DHT22;26430;48.818;9.244;2023-04-01T22:11:44;9.00;99.90
2447;DHT22;26430;48.818;9.244;2023-04-01T22:14:23;9.00;99.90
2447;DHT22;26430;48.818;9.244;2023-04-01T22:17:04;9.00;99.90
2447;DHT22;26430;48.818;9.244;2023-04-01T22:22:27;9.00;99.90
2447;DHT22;26430;48.818;9.244;2023-04-01T22:24:59;8.90;99.90
2447;DHT22;26430;48.818;9.244;2023-04-01T22:30:22;8.90;99.90
2447;DHT22;26430;48.818;9.244;2023-04-01T22:32:52;8.90;99.90
2447;DHT22;26430;48.818;9.244;2023-04-01T22:43:48;8.80;99.90
2447;DHT22;26430;48.818;9.244;2023-04-01T22:49:06;8.80;99.90
2447;DHT22;26430;48.818;9.244;2023-04-01T22:51:49;8.80;99.90
2447;DHT22;26430;48.818;9.244;2023-04-01T22:54:31;8.90;99.90
2447;DHT22;26430;48.818;9.244;2023-04-01T22:57:12;8.80;99.90
2447;DHT22;26430;48.818;9.244;2023-04-01T22:59:52;8.90;99.90
2447;DHT22;26430;48.818;9.244;2023-04-01T23:02:48;9.00;99.90
2447;DHT22;26430;48.818;9.244;2023-04-01T23:05:18;8.90;99.90
2447;DHT22;26430;48.818;9.244;2023-04-01T23:10:41;8.90;99.90
2447;DHT22;26430;48.818;9.244;2023-04-01T23:13:18;8.90;99.90
2447;DHT22;26430;48.818;9.244;2023-04-01T23:15:46;8.90;99.90
2447;DHT22;26430;48.818;9.244;2023-04-01T23:21:13;8.80;99.90
2447;DHT22;26430;48.818;9.244;2023-04-01T23:26:31;8.80;99.90
2447;DHT22;26430;48.818;9.244;2023-04-01T23:28:58;8.80;99.90
2447;DHT22;26430;48.818;9.244;2023-04-01T23:34:21;8.80;99.90
2447;DHT22;26430;48.818;9.244;2023-04-01T23:36:47;8.80;99.90
2447;DHT22;26430;48.818;9.244;2023-04-01T23:39:41;8.80;99.90
2447;DHT22;26430;48.818;9.244;2023-04-01T23:44:45;8.70;99.90
2447;DHT22;26430;48.818;9.244;2023-04-01T23:47:30;8.70;99.90
2447;DHT22;26430;48.818;9.244;2023-04-01T23:49:59;8.70;99.90
2447;DHT22;26430;48.818;9.244;2023-04-01T23:53:03;8.70;99.90
2447;DHT22;26430;48.818;9.244;2023-04-01T23:55:33;8.60;99.90
